Time;durP1;ratioP1;P1;durP2;ratioP2;P2;SDS_P1;SDS_P2;PMS_P1;PMS_P2;Temp;Humidity;BMP_temperature;BMP_pressure;BME280_temperature;BME280_humidity;BME280_pressure;Samples;Min_cycle;Max_cycle;Signal;HPM_P1;HPM_P2
2022/08/13 00:00:35;;;;;;;59.20;3.50;;;;;;;;;;5071831;28;20455;-67
2022/08/13 00:03:02;;;;;;;59.23;3.60;;;;;;;;;;5071583;28;20443;-67
2022/08/13 00:05:31;;;;;;;59.10;3.30;;;;;;;;;;5070850;28;20475;-67
2022/08/13 00:07:58;;;;;;;58.70;3.27;;;;;;;;;;5070950;28;20542;-67
2022/08/13 00:10:27;;;;;;;59.37;3.50;;;;;;;;;;5070696;28;20447;-67
2022/08/13 00:12:56;;;;;;;58.83;3.20;;;;;;;;;;5071098;28;20559;-67
2022/08/13 00:15:26;;;;;;;61.10;3.70;;;;;;;;;;5070854;28;20900;-67
2022/08/13 00:17:54;;;;;;;59.40;3.80;;;;;;;;;;5070937;28;20454;-67
2022/08/13 00:20:23;;;;;;;59.33;3.67;;;;;;;;;;5070557;28;20542;-67
2022/08/13 00:22:54;;;;;;;58.90;3.60;;;;;;;;;;5071237;28;20763;-67
2022/08/13 00:25:23;;;;;;;59.87;4.07;;;;;;;;;;5071824;28;20508;-67
2022/08/13 00:27:56;;;;;;;60.00;4.03;;;;;;;;;;5071752;28;20451;-67
2022/08/13 00:30:25;;;;;;;59.57;3.70;;;;;;;;;;5071471;28;20452;-67
2022/08/13 00:32:52;;;;;;;58.50;3.07;;;;;;;;;;5071322;28;21074;-67
2022/08/13 00:35:19;;;;;;;59.10;3.73;;;;;;;;;;5073105;28;20867;-67
2022/08/13 00:37:46;;;;;;;59.50;3.60;;;;;;;;;;5075029;28;20459;-67
2022/08/13 00:40:17;;;;;;;59.20;3.10;;;;;;;;;;5074830;28;20812;-67
2022/08/13 00:42:44;;;;;;;60.10;3.83;;;;;;;;;;5074804;28;20467;-67
2022/08/13 00:45:12;;;;;;;58.80;3.13;;;;;;;;;;5074592;28;20489;-67
2022/08/13 00:50:26;;;;;;;59.67;4.03;;;;;;;;;;5074379;28;20414;-67
2022/08/13 00:52:54;;;;;;;59.90;4.37;;;;;;;;;;5074730;28;20463;-67
2022/08/13 00:55:23;;;;;;;59.60;3.50;;;;;;;;;;5075513;28;20443;-67
2022/08/13 00:57:50;;;;;;;58.43;3.07;;;;;;;;;;5075328;28;20961;-67
2022/08/13 01:00:19;;;;;;;59.93;3.77;;;;;;;;;;5075359;28;20457;-67
2022/08/13 01:02:47;;;;;;;59.17;3.47;;;;;;;;;;5075238;28;20482;-67
2022/08/13 01:05:15;;;;;;;59.50;3.60;;;;;;;;;;5074488;28;20483;-67
2022/08/13 01:07:43;;;;;;;58.67;3.43;;;;;;;;;;5074406;28;20447;-67
2022/08/13 01:10:11;;;;;;;58.77;3.67;;;;;;;;;;5074005;28;20448;-67
2022/08/13 01:12:40;;;;;;;59.30;3.73;;;;;;;;;;5074084;28;20479;-67
2022/08/13 01:15:11;;;;;;;58.77;3.63;;;;;;;;;;5074035;28;20443;-67
2022/08/13 01:17:39;;;;;;;59.27;3.67;;;;;;;;;;5074282;28;20487;-67
2022/08/13 01:20:07;;;;;;;58.87;3.40;;;;;;;;;;5073873;28;20450;-67
2022/08/13 01:22:35;;;;;;;60.13;2.90;;;;;;;;;;5074035;28;20903;-67
2022/08/13 01:25:05;;;;;;;58.87;3.17;;;;;;;;;;5074537;28;20514;-67
2022/08/13 01:27:33;;;;;;;58.80;3.00;;;;;;;;;;5075094;28;20783;-67
2022/08/13 01:30:01;;;;;;;59.67;3.57;;;;;;;;;;5074552;28;20525;-67
2022/08/13 01:32:29;;;;;;;58.63;3.20;;;;;;;;;;5074687;28;20507;-67
2022/08/13 01:34:56;;;;;;;58.90;3.57;;;;;;;;;;5074084;28;20446;-67
2022/08/13 01:37:23;;;;;;;59.27;3.47;;;;;;;;;;5073810;28;20444;-67
2022/08/13 01:39:52;;;;;;;60.10;3.73;;;;;;;;;;5073321;28;20455;-67
2022/08/13 01:42:20;;;;;;;59.10;3.57;;;;;;;;;;5073619;28;20554;-67
2022/08/13 01:44:47;;;;;;;59.13;3.47;;;;;;;;;;5072010;28;20490;-67
2022/08/13 01:52:45;;;;;;;58.90;3.00;;;;;;;;;;5073398;28;20462;-67
2022/08/13 01:55:14;;;;;;;58.97;3.30;;;;;;;;;;5074370;28;20806;-67
2022/08/13 01:57:43;;;;;;;60.40;4.20;;;;;;;;;;5074341;28;20452;-67
2022/08/13 02:00:13;;;;;;;59.00;3.67;;;;;;;;;;5074040;28;20504;-67
2022/08/13 02:02:43;;;;;;;59.50;3.50;;;;;;;;;;5074284;28;20556;-67
2022/08/13 02:05:10;;;;;;;59.17;3.43;;;;;;;;;;5073552;28;20483;-67
2022/08/13 02:07:38;;;;;;;59.00;3.50;;;;;;;;;;5073169;28;20893;-67
2022/08/13 02:10:05;;;;;;;59.07;3.60;;;;;;;;;;5072915;28;20932;-67
2022/08/13 02:12:35;;;;;;;59.07;3.40;;;;;;;;;;5073482;28;20554;-67
2022/08/13 02:15:04;;;;;;;58.80;3.60;;;;;;;;;;5073242;28;20459;-67
2022/08/13 02:17:34;;;;;;;59.30;3.50;;;;;;;;;;5073207;28;20550;-67
2022/08/13 02:20:03;;;;;;;58.83;3.23;;;;;;;;;;5072711;28;20447;-67
2022/08/13 02:22:31;;;;;;;59.70;4.10;;;;;;;;;;5072970;28;20489;-67
2022/08/13 02:24:59;;;;;;;58.93;3.40;;;;;;;;;;5073212;28;20479;-67
2022/08/13 02:27:27;;;;;;;59.00;3.30;;;;;;;;;;5073728;28;20455;-67
2022/08/13 02:29:59;;;;;;;59.23;4.00;;;;;;;;;;5073466;28;20450;-67
2022/08/13 02:32:26;;;;;;;59.40;3.93;;;;;;;;;;5073775;28;20475;-67
2022/08/13 02:34:54;;;;;;;59.60;4.13;;;;;;;;;;5072960;28;20447;-67
2022/08/13 02:37:23;;;;;;;60.40;3.90;;;;;;;;;;5072555;28;20447;-67
2022/08/13 02:39:50;;;;;;;60.27;3.37;;;;;;;;;;5072232;28;20453;-67
2022/08/13 02:42:18;;;;;;;63.40;3.87;;;;;;;;;;5072656;28;20548;-67
2022/08/13 02:44:47;;;;;;;59.77;3.50;;;;;;;;;;5072517;28;20454;-67
2022/08/13 02:47:18;;;;;;;59.37;3.50;;;;;;;;;;5072524;28;20471;-67
2022/08/13 02:49:48;;;;;;;59.17;3.50;;;;;;;;;;5072204;28;20452;-67
2022/08/13 02:52:17;;;;;;;59.07;3.03;;;;;;;;;;5072345;28;20486;-67
2022/08/13 02:54:46;;;;;;;61.27;4.00;;;;;;;;;;5072628;28;20827;-67
2022/08/13 02:57:14;;;;;;;59.50;3.83;;;;;;;;;;5071655;28;20458;-67
2022/08/13 02:59:41;;;;;;;58.97;3.80;;;;;;;;;;5071879;28;20556;-67
2022/08/13 03:02:10;;;;;;;58.90;3.20;;;;;;;;;;5072232;28;20842;-67
2022/08/13 03:04:44;;;;;;;58.67;3.30;;;;;;;;;;5072077;28;20443;-67
2022/08/13 03:07:11;;;;;;;58.90;3.20;;;;;;;;;;5072425;28;20482;-67
2022/08/13 03:09:39;;;;;;;59.00;3.43;;;;;;;;;;5071830;28;20534;-67
2022/08/13 03:12:07;;;;;;;60.20;4.20;;;;;;;;;;5071981;28;20560;-67
2022/08/13 03:14:37;;;;;;;59.60;3.50;;;;;;;;;;5072714;28;20800;-67
2022/08/13 03:17:04;;;;;;;59.80;3.70;;;;;;;;;;5072684;28;20435;-67
2022/08/13 03:19:31;;;;;;;59.27;3.70;;;;;;;;;;5072303;28;20478;-67
2022/08/13 03:22:01;;;;;;;59.33;4.30;;;;;;;;;;5072724;28;20841;-67
2022/08/13 03:24:28;;;;;;;61.27;3.43;;;;;;;;;;5071847;28;20458;-67
2022/08/13 03:26:55;;;;;;;59.87;4.10;;;;;;;;;;5071663;28;20483;-67
2022/08/13 03:29:23;;;;;;;59.50;3.87;;;;;;;;;;5071436;28;20554;-67
2022/08/13 03:31:50;;;;;;;60.30;4.10;;;;;;;;;;5071536;28;20475;-67
2022/08/13 03:34:20;;;;;;;59.13;3.33;;;;;;;;;;5071818;28;20463;-67
2022/08/13 03:36:47;;;;;;;59.47;3.87;;;;;;;;;;5071709;28;20439;-67
2022/08/13 03:39:16;;;;;;;59.67;3.53;;;;;;;;;;5071360;28;20454;-67
2022/08/13 03:41:43;;;;;;;60.60;4.60;;;;;;;;;;5071366;28;20465;-67
2022/08/13 03:44:10;;;;;;;59.37;3.67;;;;;;;;;;5071824;28;20551;-67
2022/08/13 03:46:37;;;;;;;60.27;3.97;;;;;;;;;;5072132;28;20493;-67
2022/08/13 03:49:04;;;;;;;60.30;3.83;;;;;;;;;;5071973;28;20452;-67
2022/08/13 03:51:31;;;;;;;61.50;4.63;;;;;;;;;;5072014;28;20475;-67
2022/08/13 03:53:59;;;;;;;60.80;5.63;;;;;;;;;;5071754;28;20863;-67
2022/08/13 03:56:28;;;;;;;244.60;25.23;;;;;;;;;;5071150;28;20940;-67
2022/08/13 03:58:55;;;;;;;153.03;35.03;;;;;;;;;;5070717;28;21017;-67
2022/08/13 04:01:22;;;;;;;66.70;5.73;;;;;;;;;;5071044;28;21017;-67
2022/08/13 04:03:50;;;;;;;67.83;5.90;;;;;;;;;;5071263;28;20443;-67
2022/08/13 04:06:19;;;;;;;80.17;10.50;;;;;;;;;;5071141;28;20491;-67
2022/08/13 04:08:48;;;;;;;74.27;9.30;;;;;;;;;;5070087;28;20451;-67
2022/08/13 04:11:15;;;;;;;70.10;6.07;;;;;;;;;;5070764;28;20463;-67
2022/08/13 04:13:44;;;;;;;210.20;24.87;;;;;;;;;;5071235;28;20931;-67
2022/08/13 04:16:12;;;;;;;105.17;31.37;;;;;;;;;;5072007;28;20824;-67
2022/08/13 04:18:39;;;;;;;63.37;5.60;;;;;;;;;;5071900;28;20447;-67
2022/08/13 04:21:08;;;;;;;61.00;4.53;;;;;;;;;;5071629;28;21035;-67
2022/08/13 04:23:38;;;;;;;62.07;4.50;;;;;;;;;;5071510;28;20455;-67
2022/08/13 04:26:05;;;;;;;60.97;4.90;;;;;;;;;;5070766;28;20574;-67
2022/08/13 04:28:32;;;;;;;59.67;3.80;;;;;;;;;;5070952;28;20450;-67
2022/08/13 04:31:02;;;;;;;61.70;4.63;;;;;;;;;;5071002;28;20470;-67
2022/08/13 04:33:29;;;;;;;62.27;4.90;;;;;;;;;;5070923;28;20822;-67
2022/08/13 04:35:57;;;;;;;59.77;4.17;;;;;;;;;;5070771;28;20924;-67
2022/08/13 04:38:24;;;;;;;60.60;4.30;;;;;;;;;;5070623;28;20443;-67
2022/08/13 04:40:52;;;;;;;65.37;6.00;;;;;;;;;;5070618;28;20463;-67
2022/08/13 04:43:19;;;;;;;60.90;4.30;;;;;;;;;;5070985;28;21006;-66
2022/08/13 04:45:46;;;;;;;60.37;4.73;;;;;;;;;;5071528;28;20479;-67
2022/08/13 04:48:15;;;;;;;60.87;5.20;;;;;;;;;;5071395;28;20455;-67
2022/08/13 04:50:43;;;;;;;60.80;4.83;;;;;;;;;;5071122;28;20439;-67
2022/08/13 04:53:20;;;;;;;62.57;4.10;;;;;;;;;;5071353;28;20816;-67
2022/08/13 04:55:48;;;;;;;61.10;5.20;;;;;;;;;;5070859;28;20431;-67
2022/08/13 04:58:17;;;;;;;60.63;4.77;;;;;;;;;;5070611;28;20880;-67
2022/08/13 05:00:45;;;;;;;61.97;4.63;;;;;;;;;;5070323;28;20456;-67
2022/08/13 05:03:13;;;;;;;60.67;4.23;;;;;;;;;;5070616;28;20445;-67
2022/08/13 05:05:41;;;;;;;61.53;4.77;;;;;;;;;;5070695;28;20545;-67
2022/08/13 05:08:09;;;;;;;60.70;4.50;;;;;;;;;;5070560;28;20451;-67
2022/08/13 05:10:37;;;;;;;60.00;4.57;;;;;;;;;;5070085;28;21031;-67
2022/08/13 05:13:06;;;;;;;62.67;4.87;;;;;;;;;;5070617;28;20443;-67
2022/08/13 05:15:39;;;;;;;60.70;4.50;;;;;;;;;;5071066;28;20454;-67
2022/08/13 05:18:07;;;;;;;60.07;4.20;;;;;;;;;;5071116;28;20447;-67
2022/08/13 05:20:34;;;;;;;61.03;4.83;;;;;;;;;;5071992;28;20486;-67
2022/08/13 05:23:08;;;;;;;60.97;4.40;;;;;;;;;;5075119;28;20524;-67
2022/08/13 05:25:35;;;;;;;60.00;3.87;;;;;;;;;;5074168;28;20454;-67
2022/08/13 05:28:02;;;;;;;59.50;3.60;;;;;;;;;;5074030;28;20443;-67
2022/08/13 05:30:29;;;;;;;61.30;3.90;;;;;;;;;;5073694;28;20538;-67
2022/08/13 05:32:57;;;;;;;60.60;4.43;;;;;;;;;;5073963;28;20443;-67
2022/08/13 05:35:25;;;;;;;59.70;3.80;;;;;;;;;;5074121;28;20508;-67
2022/08/13 05:37:52;;;;;;;60.23;3.67;;;;;;;;;;5073846;28;20447;-67
2022/08/13 05:40:21;;;;;;;59.27;3.30;;;;;;;;;;5073533;28;20447;-67
2022/08/13 05:42:48;;;;;;;59.57;3.93;;;;;;;;;;5074109;28;21034;-67
2022/08/13 05:45:15;;;;;;;58.97;3.47;;;;;;;;;;5074101;28;20453;-67
2022/08/13 05:47:43;;;;;;;58.80;3.47;;;;;;;;;;5074544;28;20493;-67
2022/08/13 05:50:14;;;;;;;59.27;3.37;;;;;;;;;;5074068;28;20512;-67
2022/08/13 05:52:41;;;;;;;59.90;3.70;;;;;;;;;;5074246;28;20481;-67
2022/08/13 05:55:09;;;;;;;59.07;3.50;;;;;;;;;;5074167;28;20477;-67
2022/08/13 05:57:37;;;;;;;59.40;3.87;;;;;;;;;;5073747;28;20439;-67
2022/08/13 06:05:35;;;;;;;59.60;3.90;;;;;;;;;;5073411;28;20474;-67
2022/08/13 06:08:04;;;;;;;59.37;3.37;;;;;;;;;;5073090;28;20475;-67
2022/08/13 06:10:33;;;;;;;58.90;3.30;;;;;;;;;;5072871;28;20447;-67
2022/08/13 06:13:02;;;;;;;59.10;3.30;;;;;;;;;;5073803;28;20447;-67
2022/08/13 06:15:29;;;;;;;59.07;3.50;;;;;;;;;;5073575;28;20452;-67
2022/08/13 06:17:57;;;;;;;59.10;3.20;;;;;;;;;;5073826;28;20454;-67
2022/08/13 06:20:24;;;;;;;59.60;4.13;;;;;;;;;;5073418;28;20811;-67
2022/08/13 06:22:51;;;;;;;58.90;3.63;;;;;;;;;;5073845;28;20493;-67
2022/08/13 06:25:19;;;;;;;60.97;3.40;;;;;;;;;;5073532;28;20440;-67
2022/08/13 06:27:46;;;;;;;62.50;4.10;;;;;;;;;;5072710;28;20490;-67
2022/08/13 06:30:18;;;;;;;59.13;3.70;;;;;;;;;;5072361;28;20896;-67
2022/08/13 06:32:45;;;;;;;59.23;3.47;;;;;;;;;;5071556;28;20473;-67
2022/08/13 06:35:13;;;;;;;58.67;3.10;;;;;;;;;;5072872;28;20447;-67
2022/08/13 06:37:44;;;;;;;59.07;3.80;;;;;;;;;;5072484;28;20449;-67
2022/08/13 06:40:12;;;;;;;58.90;3.23;;;;;;;;;;5072109;28;20801;-67
2022/08/13 06:42:44;;;;;;;62.33;4.27;;;;;;;;;;5072370;28;20488;-67
2022/08/13 06:45:12;;;;;;;59.57;3.80;;;;;;;;;;5072586;28;20455;-67
2022/08/13 06:47:41;;;;;;;59.30;3.30;;;;;;;;;;5073184;28;20490;-67
2022/08/13 06:50:11;;;;;;;59.40;3.80;;;;;;;;;;5073132;28;20454;-67
2022/08/13 06:52:39;;;;;;;60.27;3.73;;;;;;;;;;5073067;28;20490;-67
2022/08/13 06:55:08;;;;;;;59.20;3.30;;;;;;;;;;5072977;28;20444;-67
2022/08/13 06:57:37;;;;;;;59.10;3.40;;;;;;;;;;5071972;28;20466;-67
2022/08/13 07:00:09;;;;;;;59.30;3.47;;;;;;;;;;5071563;28;20452;-67
2022/08/13 07:02:36;;;;;;;59.77;3.83;;;;;;;;;;5072145;28;20477;-67
2022/08/13 07:05:05;;;;;;;60.60;4.53;;;;;;;;;;5071935;28;20533;-67
2022/08/13 07:07:33;;;;;;;59.30;3.87;;;;;;;;;;5071721;28;20479;-67
2022/08/13 07:10:00;;;;;;;58.90;3.60;;;;;;;;;;5071620;28;20454;-67
2022/08/13 07:12:28;;;;;;;59.03;3.50;;;;;;;;;;5071616;28;20829;-67
2022/08/13 07:14:55;;;;;;;58.67;3.30;;;;;;;;;;5071622;28;20457;-67
2022/08/13 07:17:23;;;;;;;59.60;3.93;;;;;;;;;;5072846;28;20490;-67
2022/08/13 07:19:50;;;;;;;58.87;3.50;;;;;;;;;;5072409;28;20518;-67
2022/08/13 07:22:18;;;;;;;59.13;3.67;;;;;;;;;;5072576;28;20575;-67
2022/08/13 07:24:49;;;;;;;58.40;3.00;;;;;;;;;;5072554;28;20454;-67
2022/08/13 07:27:17;;;;;;;58.87;3.20;;;;;;;;;;5071761;28;20483;-67
2022/08/13 07:29:46;;;;;;;58.30;3.07;;;;;;;;;;5071638;28;20443;-67
2022/08/13 07:32:13;;;;;;;61.50;3.57;;;;;;;;;;5071686;28;20506;-67
2022/08/13 07:34:40;;;;;;;58.50;3.07;;;;;;;;;;5071706;28;20884;-67
2022/08/13 07:37:08;;;;;;;58.87;2.97;;;;;;;;;;5071317;28;20446;-67
2022/08/13 07:39:36;;;;;;;66.80;3.10;;;;;;;;;;5070988;28;20457;-67
2022/08/13 07:42:04;;;;;;;58.67;3.20;;;;;;;;;;5071472;28;20574;-67
2022/08/13 07:44:31;;;;;;;58.70;3.23;;;;;;;;;;5071267;28;20468;-67
2022/08/13 07:46:59;;;;;;;59.30;3.20;;;;;;;;;;5071991;28;20853;-67
2022/08/13 07:49:27;;;;;;;58.27;3.07;;;;;;;;;;5071849;28;20488;-67
2022/08/13 07:51:54;;;;;;;58.87;3.30;;;;;;;;;;5072111;28;21011;-67
2022/08/13 07:54:21;;;;;;;58.87;3.40;;;;;;;;;;5071934;28;20445;-67
2022/08/13 07:56:53;;;;;;;58.73;3.10;;;;;;;;;;5071719;28;20769;-67
2022/08/13 07:59:21;;;;;;;58.20;2.93;;;;;;;;;;5070991;28;20467;-67
2022/08/13 08:01:48;;;;;;;58.30;3.00;;;;;;;;;;5071013;28;20473;-67
2022/08/13 08:04:16;;;;;;;58.90;3.30;;;;;;;;;;5071041;28;20548;-67
2022/08/13 08:06:44;;;;;;;58.53;3.03;;;;;;;;;;5070807;28;20496;-67
2022/08/13 08:09:12;;;;;;;59.20;3.10;;;;;;;;;;5070947;28;20451;-67
2022/08/13 08:14:27;;;;;;;59.00;3.33;;;;;;;;;;5070967;28;20484;-67
2022/08/13 08:16:54;;;;;;;58.83;3.80;;;;;;;;;;5071417;28;20450;-67
2022/08/13 08:19:21;;;;;;;57.67;2.73;;;;;;;;;;5071295;28;20443;-67
2022/08/13 08:21:49;;;;;;;57.87;3.00;;;;;;;;;;5071767;28;20466;-67
2022/08/13 08:24:17;;;;;;;58.30;2.70;;;;;;;;;;5071799;28;20456;-67
2022/08/13 08:26:46;;;;;;;59.00;3.50;;;;;;;;;;5071236;28;20874;-67
2022/08/13 08:29:14;;;;;;;59.73;3.50;;;;;;;;;;5070371;28;20944;-67
2022/08/13 08:31:44;;;;;;;58.30;3.30;;;;;;;;;;5070595;28;20499;-67
2022/08/13 08:34:12;;;;;;;58.57;3.10;;;;;;;;;;5070684;28;20910;-67
2022/08/13 08:36:40;;;;;;;59.20;3.23;;;;;;;;;;5070773;28;20468;-67
2022/08/13 08:44:39;;;;;;;58.37;3.20;;;;;;;;;;5070696;28;20443;-67
2022/08/13 08:47:08;;;;;;;58.50;3.30;;;;;;;;;;5071014;28;20481;-67
2022/08/13 08:49:36;;;;;;;58.67;3.07;;;;;;;;;;5071188;28;20855;-65
2022/08/13 08:52:04;;;;;;;58.53;3.17;;;;;;;;;;5071353;28;20853;-65
2022/08/13 08:54:31;;;;;;;61.50;3.40;;;;;;;;;;5071390;28;20805;-65
2022/08/13 08:56:59;;;;;;;58.17;3.13;;;;;;;;;;5074480;28;20455;-65
2022/08/13 08:59:27;;;;;;;58.50;3.00;;;;;;;;;;5074190;28;20479;-65
2022/08/13 09:01:55;;;;;;;58.13;3.10;;;;;;;;;;5074499;28;20463;-65
2022/08/13 09:04:25;;;;;;;65.03;3.37;;;;;;;;;;5074307;28;20453;-68
2022/08/13 09:06:55;;;;;;;58.47;2.93;;;;;;;;;;5074387;28;20471;-67
2022/08/13 09:09:22;;;;;;;59.10;3.50;;;;;;;;;;5074241;28;20451;-67
2022/08/13 09:11:51;;;;;;;58.70;3.00;;;;;;;;;;5074456;28;20493;-67
2022/08/13 09:14:18;;;;;;;58.07;2.73;;;;;;;;;;5074225;28;20451;-67
2022/08/13 09:16:46;;;;;;;58.70;3.00;;;;;;;;;;5074098;28;20447;-67
2022/08/13 09:19:14;;;;;;;58.27;2.70;;;;;;;;;;5074223;28;20447;-67
2022/08/13 09:21:45;;;;;;;58.30;2.77;;;;;;;;;;5074637;28;20469;-67
2022/08/13 09:24:14;;;;;;;58.30;3.33;;;;;;;;;;5074989;28;20891;-67
2022/08/13 09:26:43;;;;;;;58.50;2.53;;;;;;;;;;5074370;28;20451;-67
2022/08/13 09:29:12;;;;;;;57.93;2.80;;;;;;;;;;5073582;28;20483;-67
2022/08/13 09:31:42;;;;;;;59.20;3.10;;;;;;;;;;5073756;28;20521;-67
2022/08/13 09:34:09;;;;;;;58.30;3.00;;;;;;;;;;5074124;28;20486;-67
2022/08/13 09:36:36;;;;;;;59.60;2.90;;;;;;;;;;5073616;28;20447;-67
2022/08/13 09:39:05;;;;;;;58.10;2.60;;;;;;;;;;5073175;28;20504;-68
2022/08/13 09:41:34;;;;;;;57.93;2.60;;;;;;;;;;5073656;28;20690;-68
2022/08/13 09:44:01;;;;;;;58.00;2.60;;;;;;;;;;5073334;28;20931;-68
2022/08/13 09:46:30;;;;;;;58.57;2.63;;;;;;;;;;5073498;28;20443;-68
2022/08/13 09:48:57;;;;;;;58.47;2.27;;;;;;;;;;5073834;28;20479;-68
2022/08/13 09:51:25;;;;;;;58.50;2.60;;;;;;;;;;5074241;28;20475;-68
2022/08/13 09:53:52;;;;;;;58.10;2.10;;;;;;;;;;5074424;28;20447;-68
2022/08/13 09:56:22;;;;;;;58.10;2.30;;;;;;;;;;5074260;28;20447;-68
2022/08/13 09:58:50;;;;;;;58.37;2.73;;;;;;;;;;5073143;28;20451;-68
2022/08/13 10:01:18;;;;;;;57.83;2.10;;;;;;;;;;5073024;28;20467;-68
2022/08/13 10:03:48;;;;;;;57.90;2.40;;;;;;;;;;5073405;28;20454;-68
2022/08/13 10:06:16;;;;;;;58.10;2.60;;;;;;;;;;5072881;28;20466;-68
2022/08/13 10:08:45;;;;;;;58.00;2.67;;;;;;;;;;5071894;28;20646;-68
2022/08/13 10:11:12;;;;;;;57.73;2.37;;;;;;;;;;5073082;28;20471;-68
2022/08/13 10:13:41;;;;;;;58.50;2.80;;;;;;;;;;5072881;28;20990;-68
2022/08/13 10:16:08;;;;;;;57.50;2.20;;;;;;;;;;5072845;28;21166;-68
2022/08/13 10:18:35;;;;;;;57.60;2.30;;;;;;;;;;5073192;28;20448;-68
2022/08/13 10:21:02;;;;;;;57.90;2.50;;;;;;;;;;5074165;28;20524;-68
2022/08/13 10:23:30;;;;;;;57.97;2.50;;;;;;;;;;5073824;28;20466;-68
2022/08/13 10:25:58;;;;;;;57.90;2.50;;;;;;;;;;5073641;28;20546;-68
2022/08/13 10:28:25;;;;;;;58.27;2.30;;;;;;;;;;5072665;28;20497;-68
2022/08/13 10:30:55;;;;;;;57.80;2.17;;;;;;;;;;5072367;28;20467;-68
2022/08/13 10:33:23;;;;;;;57.77;2.30;;;;;;;;;;5072692;28;20455;-68
2022/08/13 10:35:52;;;;;;;58.40;3.00;;;;;;;;;;5072605;28;20798;-68
2022/08/13 10:38:20;;;;;;;58.60;2.87;;;;;;;;;;5072413;28;20439;-68
2022/08/13 10:40:48;;;;;;;57.77;2.30;;;;;;;;;;5071970;28;20509;-66
2022/08/13 10:43:17;;;;;;;57.47;2.10;;;;;;;;;;5072462;28;20525;-66
2022/08/13 10:45:46;;;;;;;57.47;2.40;;;;;;;;;;5072463;28;20534;-66
2022/08/13 10:48:14;;;;;;;57.80;2.53;;;;;;;;;;5072683;28;20532;-66
2022/08/13 10:50:42;;;;;;;57.33;2.07;;;;;;;;;;5072818;28;20452;-66
2022/08/13 10:53:54;;;;;;;56.97;1.97;;;;;;;;;;5072938;28;20554;-67
2022/08/13 10:55:57;;;;;;;56.80;1.80;;;;;;;;;;5072925;28;20454;-67
2022/08/13 10:58:24;;;;;;;56.87;2.07;;;;;;;;;;5072216;28;21050;-67
2022/08/13 11:00:51;;;;;;;56.80;2.00;;;;;;;;;;5071796;28;20478;-67
2022/08/13 11:03:20;;;;;;;57.63;2.00;;;;;;;;;;5071972;28;20530;-67
2022/08/13 11:05:47;;;;;;;56.83;2.00;;;;;;;;;;5071386;28;20526;-67
2022/08/13 11:08:15;;;;;;;56.37;1.70;;;;;;;;;;5071817;28;20489;-67
2022/08/13 11:10:42;;;;;;;56.47;2.03;;;;;;;;;;5071681;28;20542;-67
2022/08/13 11:13:09;;;;;;;56.63;2.40;;;;;;;;;;5072166;28;20450;-67
2022/08/13 11:15:36;;;;;;;56.33;2.10;;;;;;;;;;5071758;28;20534;-67
2022/08/13 11:18:05;;;;;;;56.27;2.00;;;;;;;;;;5071500;28;20531;-68
2022/08/13 11:20:50;;;;;;;57.10;2.50;;;;;;;;;;5072165;28;20858;-68
2022/08/13 11:23:18;;;;;;;56.40;2.23;;;;;;;;;;5072666;28;20468;-68
2022/08/13 11:25:45;;;;;;;56.60;2.00;;;;;;;;;;5072713;28;20450;-68
2022/08/13 11:28:12;;;;;;;56.50;2.20;;;;;;;;;;5071795;28;21036;-68
2022/08/13 11:30:39;;;;;;;56.80;2.40;;;;;;;;;;5070791;28;20454;-67
2022/08/13 11:33:07;;;;;;;57.40;2.23;;;;;;;;;;5071109;28;20443;-67
2022/08/13 11:35:35;;;;;;;56.87;2.20;;;;;;;;;;5071375;28;20489;-68
2022/08/13 11:38:06;;;;;;;56.77;2.10;;;;;;;;;;5071195;28;20534;-68
2022/08/13 11:40:34;;;;;;;56.60;2.40;;;;;;;;;;5070900;28;20524;-67
2022/08/13 11:43:01;;;;;;;56.70;2.07;;;;;;;;;;5071154;28;20450;-67
2022/08/13 11:45:28;;;;;;;56.57;2.20;;;;;;;;;;5071001;28;20448;-67
2022/08/13 11:47:56;;;;;;;56.90;2.17;;;;;;;;;;5071406;28;20479;-67
2022/08/13 11:50:23;;;;;;;57.00;2.50;;;;;;;;;;5071739;28;20440;-67
2022/08/13 11:52:51;;;;;;;56.57;2.30;;;;;;;;;;5071789;28;20858;-68
2022/08/13 11:55:19;;;;;;;56.50;2.23;;;;;;;;;;5071983;28;20544;-67
2022/08/13 11:57:47;;;;;;;56.60;2.10;;;;;;;;;;5071691;28;20447;-67
2022/08/13 12:00:15;;;;;;;56.37;2.10;;;;;;;;;;5070468;28;20444;-67
2022/08/13 12:02:42;;;;;;;56.17;2.00;;;;;;;;;;5071015;28;20575;-67
2022/08/13 12:05:09;;;;;;;56.80;2.43;;;;;;;;;;5070858;28;20475;-67
2022/08/13 12:07:41;;;;;;;56.50;1.90;;;;;;;;;;5070849;28;20447;-67
2022/08/13 12:10:09;;;;;;;56.50;2.00;;;;;;;;;;5070739;28;20879;-67
2022/08/13 12:12:37;;;;;;;56.57;2.10;;;;;;;;;;5070832;28;20459;-67
2022/08/13 12:15:04;;;;;;;56.80;2.10;;;;;;;;;;5071007;28;20533;-67
2022/08/13 12:17:32;;;;;;;56.30;2.30;;;;;;;;;;5071146;28;20526;-67
2022/08/13 12:19:59;;;;;;;56.37;2.20;;;;;;;;;;5071570;28;20435;-67
2022/08/13 12:22:27;;;;;;;56.37;1.93;;;;;;;;;;5071804;28;20546;-67
2022/08/13 12:24:54;;;;;;;56.50;2.10;;;;;;;;;;5071744;28;20450;-67
2022/08/13 12:27:22;;;;;;;56.50;2.20;;;;;;;;;;5071576;28;20973;-67
2022/08/13 12:29:49;;;;;;;57.17;2.00;;;;;;;;;;5070127;28;20483;-67
2022/08/13 12:32:16;;;;;;;57.00;2.20;;;;;;;;;;5070826;28;20520;-67
2022/08/13 12:34:44;;;;;;;56.67;1.90;;;;;;;;;;5071245;28;20530;-67
2022/08/13 12:37:11;;;;;;;56.70;1.97;;;;;;;;;;5070861;28;20439;-67
2022/08/13 12:39:38;;;;;;;56.87;1.97;;;;;;;;;;5070252;28;20957;-67
2022/08/13 12:42:05;;;;;;;56.57;2.17;;;;;;;;;;5070635;28;20473;-67
2022/08/13 12:44:33;;;;;;;56.87;2.17;;;;;;;;;;5070777;28;20443;-67
2022/08/13 12:47:01;;;;;;;57.07;2.13;;;;;;;;;;5070754;28;20529;-67
2022/08/13 12:49:28;;;;;;;56.90;2.50;;;;;;;;;;5070753;28;20942;-67
2022/08/13 12:51:55;;;;;;;56.90;2.30;;;;;;;;;;5071284;28;21017;-67
2022/08/13 12:54:22;;;;;;;56.73;2.10;;;;;;;;;;5071416;28;20538;-67
2022/08/13 12:56:50;;;;;;;56.70;2.30;;;;;;;;;;5071610;28;20445;-67
2022/08/13 12:59:17;;;;;;;56.90;2.33;;;;;;;;;;5070551;28;20984;-67
2022/08/13 13:01:52;;;;;;;57.10;1.97;;;;;;;;;;5070353;28;20944;-67
2022/08/13 13:04:20;;;;;;;56.60;1.80;;;;;;;;;;5070403;28;20447;-68
2022/08/13 13:06:47;;;;;;;56.90;2.07;;;;;;;;;;5070414;28;20458;-67
2022/08/13 13:09:14;;;;;;;56.57;1.97;;;;;;;;;;5070170;28;20864;-67
2022/08/13 13:11:42;;;;;;;56.67;2.00;;;;;;;;;;5070263;28;20550;-67
2022/08/13 13:14:10;;;;;;;56.60;2.27;;;;;;;;;;5070415;28;20487;-67
2022/08/13 13:16:38;;;;;;;56.60;2.20;;;;;;;;;;5070216;28;20443;-67
2022/08/13 13:19:09;;;;;;;55.97;1.90;;;;;;;;;;5070401;28;20813;-67
2022/08/13 13:21:36;;;;;;;56.50;2.00;;;;;;;;;;5071024;28;20490;-67
2022/08/13 13:24:04;;;;;;;56.40;2.20;;;;;;;;;;5070955;28;20443;-67
2022/08/13 13:26:32;;;;;;;56.20;2.10;;;;;;;;;;5071516;28;20455;-67
2022/08/13 13:28:59;;;;;;;56.37;2.03;;;;;;;;;;5070460;28;20486;-67
2022/08/13 13:31:26;;;;;;;56.37;2.30;;;;;;;;;;5070302;28;20463;-67
2022/08/13 13:33:53;;;;;;;56.60;2.17;;;;;;;;;;5069984;28;20458;-67
2022/08/13 13:36:22;;;;;;;56.60;2.27;;;;;;;;;;5070180;28;20452;-67
2022/08/13 13:38:49;;;;;;;57.30;2.53;;;;;;;;;;5070019;28;20555;-67
2022/08/13 13:41:16;;;;;;;56.80;2.33;;;;;;;;;;5070594;28;20469;-67
2022/08/13 13:43:43;;;;;;;56.63;2.03;;;;;;;;;;5073641;28;20443;-67
2022/08/13 13:46:10;;;;;;;56.67;2.17;;;;;;;;;;5073495;28;20550;-67
2022/08/13 13:48:40;;;;;;;56.73;1.77;;;;;;;;;;5073323;28;20482;-67
2022/08/13 13:51:08;;;;;;;58.13;2.30;;;;;;;;;;5074340;28;20470;-66
2022/08/13 13:53:38;;;;;;;56.37;2.03;;;;;;;;;;5074612;28;20871;-66
2022/08/13 13:56:07;;;;;;;56.47;2.00;;;;;;;;;;5074406;28;20539;-66
2022/08/13 13:58:35;;;;;;;56.37;2.10;;;;;;;;;;5073778;28;20944;-67
2022/08/13 14:01:02;;;;;;;56.50;2.00;;;;;;;;;;5073383;28;20860;-67
2022/08/13 14:03:30;;;;;;;56.50;2.40;;;;;;;;;;5073258;28;20455;-67
2022/08/13 14:05:57;;;;;;;56.70;2.50;;;;;;;;;;5073246;28;20939;-67
2022/08/13 14:08:27;;;;;;;56.80;2.10;;;;;;;;;;5073181;28;20447;-67
2022/08/13 14:10:56;;;;;;;57.00;2.30;;;;;;;;;;5073119;28;20841;-67
2022/08/13 14:13:23;;;;;;;57.00;2.30;;;;;;;;;;5073017;28;20549;-67
2022/08/13 14:15:50;;;;;;;56.10;2.37;;;;;;;;;;5073195;28;20630;-67
2022/08/13 14:18:20;;;;;;;56.57;2.10;;;;;;;;;;5072905;28;20807;-67
2022/08/13 14:20:48;;;;;;;56.73;2.10;;;;;;;;;;5073460;28;20476;-67
2022/08/13 14:23:16;;;;;;;56.90;2.20;;;;;;;;;;5074004;28;20447;-67
2022/08/13 14:25:46;;;;;;;56.87;2.10;;;;;;;;;;5073735;28;20466;-67
2022/08/13 14:28:16;;;;;;;56.37;2.00;;;;;;;;;;5073903;28;20447;-67
2022/08/13 14:30:44;;;;;;;56.70;2.20;;;;;;;;;;5072876;28;20483;-67
2022/08/13 14:33:12;;;;;;;56.40;2.03;;;;;;;;;;5072923;28;20447;-67
2022/08/13 14:35:42;;;;;;;58.63;2.47;;;;;;;;;;5072894;28;20499;-67
2022/08/13 14:38:09;;;;;;;56.30;2.43;;;;;;;;;;5072506;28;20835;-67
2022/08/13 14:40:36;;;;;;;56.60;2.30;;;;;;;;;;5072043;28;20458;-67
2022/08/13 14:43:03;;;;;;;56.33;2.00;;;;;;;;;;5072359;28;20953;-67
2022/08/13 14:45:43;;;;;;;55.87;2.00;;;;;;;;;;5072761;28;20500;-67
2022/08/13 14:48:11;;;;;;;56.60;1.80;;;;;;;;;;5072610;28;20478;-67
2022/08/13 14:50:39;;;;;;;56.40;2.37;;;;;;;;;;5072577;28;20487;-67
2022/08/13 14:53:06;;;;;;;56.30;2.37;;;;;;;;;;5072324;28;20470;-67
2022/08/13 14:55:34;;;;;;;55.20;1.87;;;;;;;;;;5073402;28;20484;-68